Time;durP1;ratioP1;P1;durP2;ratioP2;P2;SDS_P1;SDS_P2;PMS_P1;PMS_P2;Temp;Humidity;BMP_temperature;BMP_pressure;BME280_temperature;BME280_humidity;BME280_pressure;Samples;Min_cycle;Max_cycle;Signal;HPM_P1;HPM_P2
2022/08/29 00:00:32;;;;;;;;;;;;;;;27.94;51.42;154687.83;1687319;83;20533;-71
2022/08/29 00:02:59;;;;;;;;;;;;;;;27.91;51.66;154678.67;1639757;87;21139;-71
2022/08/29 00:05:29;;;;;;;;;;;;;;;27.85;51.85;154665.56;1685814;85;20167;-62
2022/08/29 00:07:58;;;;;;;;;;;;;;;27.78;52.26;154647.16;1699254;83;20150;-71
2022/08/29 00:10:26;;;;;;;;;;;;;;;27.74;52.53;154636.67;1699366;83;20490;-70
2022/08/29 00:12:53;;;;;;;;;;;;;;;27.70;52.65;154627.47;1701490;84;20171;-63
2022/08/29 00:15:22;;;;;;;;;;;;;;;27.65;52.84;154614.38;1700856;84;20174;-62
2022/08/29 00:17:49;;;;;;;;;;;;;;;27.58;53.36;154597.30;1681629;85;20432;-70
2022/08/29 00:20:19;;;;;;;;;;;;;;;27.63;53.55;154607.78;1699296;84;20170;-71
2022/08/29 00:22:47;;;;;;;;;;;;;;;27.65;53.73;154614.38;1701062;83;20155;-71
2022/08/29 00:25:13;;;;;;;;;;;;;;;27.71;53.74;154630.09;1686604;85;20142;-62
2022/08/29 00:27:40;;;;;;;;;;;;;;;27.66;53.89;154615.70;1696754;84;21084;-70
2022/08/29 00:30:09;;;;;;;;;;;;;;;27.59;54.47;154599.92;1696692;83;20183;-72
2022/08/29 00:32:37;;;;;;;;;;;;;;;27.63;54.57;154607.78;1696959;84;20114;-71
2022/08/29 00:35:07;;;;;;;;;;;;;;;27.63;54.44;154609.13;1697059;84;20130;-70
2022/08/29 00:37:34;;;;;;;;;;;;;;;27.67;54.31;154618.31;1696686;84;20143;-63
2022/08/29 00:40:02;;;;;;;;;;;;;;;27.61;54.24;154603.88;1696676;84;21239;-65
2022/08/29 00:42:30;;;;;;;;;;;;;;;27.54;54.31;154585.53;1696717;83;20269;-62
2022/08/29 00:44:57;;;;;;;;;;;;;;;27.50;54.34;154576.28;1697155;83;20170;-62
2022/08/29 00:47:27;;;;;;;;;;;;;;;27.45;54.40;154564.47;1696893;84;20443;-61
2022/08/29 00:49:55;;;;;;;;;;;;;;;27.35;54.66;154538.25;1696712;84;20167;-61
2022/08/29 00:52:31;;;;;;;;;;;;;;;27.24;55.23;154510.70;1697001;84;21206;-61
2022/08/29 00:54:58;;;;;;;;;;;;;;;27.22;55.62;154505.47;1695800;83;20309;-69
2022/08/29 00:57:25;;;;;;;;;;;;;;;27.24;56.01;154509.38;1697183;84;20221;-70
2022/08/29 00:59:52;;;;;;;;;;;;;;;27.33;56.02;154533.00;1697249;84;20148;-69
2022/08/29 01:02:19;;;;;;;;;;;;;;;27.28;56.17;154519.86;1696724;84;20471;-71
2022/08/29 01:04:45;;;;;;;;;;;;;;;27.29;56.19;154522.47;1696913;84;21087;-62
2022/08/29 01:07:13;;;;;;;;;;;;;;;27.23;56.35;154508.08;1702241;84;20128;-62
2022/08/29 01:09:42;;;;;;;;;;;;;;;27.19;56.53;154497.59;1702324;84;20182;-62
2022/08/29 01:12:14;;;;;;;;;;;;;;;27.09;56.91;154472.67;1702224;84;20460;-62
2022/08/29 01:14:46;;;;;;;;;;;;;;;27.06;57.44;154464.77;1702151;84;20216;-62
2022/08/29 01:17:13;;;;;;;;;;;;;;;27.08;57.58;154468.72;1702339;84;21744;-62
2022/08/29 01:19:46;;;;;;;;;;;;;;;27.13;57.52;154481.83;1676614;84;20204;-70
2022/08/29 01:22:33;;;;;;;;;;;;;;;27.15;57.59;154488.41;1703338;84;20204;-70
2022/08/29 01:25:02;;;;;;;;;;;;;;;27.15;57.89;154488.41;1705517;84;20140;-63
2022/08/29 01:27:30;;;;;;;;;;;;;;;27.20;58.39;154498.88;1705015;83;20202;-63
2022/08/29 01:29:57;;;;;;;;;;;;;;;27.28;58.12;154519.86;1705732;84;21146;-71
2022/08/29 01:32:24;;;;;;;;;;;;;;;27.26;58.07;154514.61;1705267;84;20449;-70
2022/08/29 01:34:52;;;;;;;;;;;;;;;27.19;58.54;154497.59;1705236;83;20129;-70
2022/08/29 01:37:18;;;;;;;;;;;;;;;27.10;58.91;154475.30;1705735;83;20192;-71
2022/08/29 01:39:45;;;;;;;;;;;;;;;27.05;59.55;154462.14;1705055;83;20172;-62
2022/08/29 01:42:15;;;;;;;;;;;;;;;27.09;59.79;154472.67;1677260;84;39503;-63
2022/08/29 01:44:51;;;;;;;;;;;;;;;27.13;59.84;154483.16;1704705;84;20204;-62
2022/08/29 01:47:18;;;;;;;;;;;;;;;27.18;59.70;154494.92;1705503;82;20155;-71
2022/08/29 01:49:44;;;;;;;;;;;;;;;27.11;59.70;154477.91;1705152;84;20187;-62
2022/08/29 01:52:11;;;;;;;;;;;;;;;27.11;59.76;154477.91;1705090;84;20160;-64
2022/08/29 01:54:40;;;;;;;;;;;;;;;27.09;59.71;154471.34;1705054;83;21211;-62
2022/08/29 01:57:06;;;;;;;;;;;;;;;26.97;59.87;154442.52;1705344;84;20196;-62
2022/08/29 01:59:33;;;;;;;;;;;;;;;26.92;60.12;154428.08;1705293;83;20456;-71
2022/08/29 02:02:15;;;;;;;;;;;;;;;26.94;59.91;154433.31;1705093;84;20779;-70
2022/08/29 02:04:43;;;;;;;;;;;;;;;26.95;59.68;154435.94;1705289;84;20176;-61
2022/08/29 02:07:10;;;;;;;;;;;;;;;26.99;59.55;154446.42;1699791;84;21297;-62
2022/08/29 02:09:37;;;;;;;;;;;;;;;27.03;59.26;154458.23;1701183;84;20181;-70
2022/08/29 02:12:06;;;;;;;;;;;;;;;26.99;59.27;154446.42;1682249;85;20119;-69
2022/08/29 02:14:33;;;;;;;;;;;;;;;27.06;59.08;154463.47;1699255;83;20182;-71
2022/08/29 02:17:01;;;;;;;;;;;;;;;27.06;58.82;154463.47;1701477;84;20150;-61
2022/08/29 02:19:28;;;;;;;;;;;;;;;26.96;58.90;154439.84;1681699;85;21245;-61
2022/08/29 02:21:56;;;;;;;;;;;;;;;26.85;59.28;154412.31;1699134;84;20416;-61
2022/08/29 02:24:24;;;;;;;;;;;;;;;26.78;59.53;154393.91;1699395;84;20198;-61
2022/08/29 02:26:51;;;;;;;;;;;;;;;26.73;59.78;154382.09;1699314;84;20617;-70
2022/08/29 02:29:19;;;;;;;;;;;;;;;26.71;59.92;154375.56;1706581;83;20182;-70
2022/08/29 02:31:46;;;;;;;;;;;;;;;26.73;59.96;154380.81;1699089;84;22019;-62
2022/08/29 02:34:13;;;;;;;;;;;;;;;26.69;60.11;154370.33;1699464;84;20223;-70
2022/08/29 02:36:40;;;;;;;;;;;;;;;26.71;60.13;154375.56;1699340;84;20186;-62
2022/08/29 02:39:07;;;;;;;;;;;;;;;26.69;60.10;154370.33;1706643;83;20193;-69
2022/08/29 02:41:36;;;;;;;;;;;;;;;26.60;60.45;154348.03;1699372;84;20123;-71
2022/08/29 02:44:02;;;;;;;;;;;;;;;26.55;60.83;154336.22;1706395;83;21248;-62
2022/08/29 02:46:29;;;;;;;;;;;;;;;26.64;60.92;154357.19;1698939;84;20634;-62
2022/08/29 02:48:56;;;;;;;;;;;;;;;26.74;60.57;154383.44;1706426;84;20146;-62
2022/08/29 02:51:30;;;;;;;;;;;;;;;26.70;60.39;154372.95;1699224;84;20208;-62
2022/08/29 02:53:54;;;;;;;;;;;;;;;26.69;60.41;154370.33;1698699;83;20139;-71
2022/08/29 02:56:21;;;;;;;;;;;;;;;26.68;60.35;154367.70;1706369;84;21306;-71
2022/08/29 02:58:49;;;;;;;;;;;;;;;26.67;60.23;154366.38;1699023;84;20182;-63
2022/08/29 03:01:18;;;;;;;;;;;;;;;26.57;60.30;154341.45;1706455;84;20174;-63
2022/08/29 03:03:45;;;;;;;;;;;;;;;26.46;60.67;154312.64;1705427;84;20295;-63
2022/08/29 03:06:12;;;;;;;;;;;;;;;26.43;61.00;154304.78;1702826;84;20132;-63
2022/08/29 03:08:40;;;;;;;;;;;;;;;26.46;61.00;154312.64;1705083;83;21261;-63
2022/08/29 03:11:07;;;;;;;;;;;;;;;26.52;61.05;154327.03;1705140;84;20176;-63
2022/08/29 03:13:36;;;;;;;;;;;;;;;26.62;60.96;154351.94;1704959;82;20520;-63
2022/08/29 03:16:03;;;;;;;;;;;;;;;26.70;60.63;154372.95;1705642;84;20124;-72
2022/08/29 03:18:29;;;;;;;;;;;;;;;26.74;60.40;154383.44;1705133;84;20208;-71
2022/08/29 03:20:57;;;;;;;;;;;;;;;26.69;60.51;154370.33;1705345;84;21246;-71
2022/08/29 03:23:23;;;;;;;;;;;;;;;26.62;61.12;154351.94;1705325;82;20466;-71
2022/08/29 03:25:50;;;;;;;;;;;;;;;26.62;61.27;154353.27;1705248;84;20192;-72
2022/08/29 03:28:17;;;;;;;;;;;;;;;26.59;61.33;154346.70;1705189;84;20362;-71
2022/08/29 03:30:44;;;;;;;;;;;;;;;26.57;61.56;154340.17;1705211;82;20235;-70
2022/08/29 03:33:11;;;;;;;;;;;;;;;26.54;61.86;154333.59;1705262;84;21212;-71
2022/08/29 03:35:38;;;;;;;;;;;;;;;26.59;62.15;154345.41;1704631;84;20468;-71
2022/08/29 03:38:04;;;;;;;;;;;;;;;26.70;62.09;154374.23;1704902;84;20176;-71
2022/08/29 03:40:31;;;;;;;;;;;;;;;26.78;61.92;154392.63;1704509;84;20168;-71
2022/08/29 03:42:59;;;;;;;;;;;;;;;26.79;62.21;154395.25;1704838;83;20084;-72
2022/08/29 03:45:25;;;;;;;;;;;;;;;26.88;62.10;154420.22;1704695;84;21241;-72
2022/08/29 03:47:52;;;;;;;;;;;;;;;27.02;61.64;154455.62;1704555;84;20141;-71
2022/08/29 03:50:19;;;;;;;;;;;;;;;27.09;61.42;154472.67;1704557;84;20185;-73
2022/08/29 03:52:46;;;;;;;;;;;;;;;27.23;61.13;154508.08;1704887;84;20188;-71
2022/08/29 03:55:14;;;;;;;;;;;;;;;27.36;60.59;154540.88;1704928;84;20147;-71
2022/08/29 03:57:41;;;;;;;;;;;;;;;27.44;60.25;154560.55;1687766;83;21085;-63
2022/08/29 04:00:09;;;;;;;;;;;;;;;27.38;60.25;154546.11;1639538;87;20228;-63
2022/08/29 04:02:38;;;;;;;;;;;;;;;27.38;60.72;154544.78;1687413;85;20240;-71
2022/08/29 04:05:06;;;;;;;;;;;;;;;27.46;60.57;154567.08;1639493;87;20502;-71
2022/08/29 04:07:42;;;;;;;;;;;;;;;27.63;60.15;154609.13;1665113;84;20526;-70
2022/08/29 04:10:09;;;;;;;;;;;;;;;27.81;59.58;154653.75;1699384;83;22151;-70
2022/08/29 04:12:36;;;;;;;;;;;;;;;28.02;58.74;154708.84;1701114;84;20439;-70
2022/08/29 04:15:04;;;;;;;;;;;;;;;28.11;58.24;154731.16;1681822;85;20223;-70
2022/08/29 04:17:32;;;;;;;;;;;;;;;28.09;58.35;154724.58;1665258;86;20209;-73
2022/08/29 04:19:58;;;;;;;;;;;;;;;28.11;58.48;154731.16;1699996;84;20182;-75
2022/08/29 04:22:25;;;;;;;;;;;;;;;28.21;58.12;154756.16;1702426;83;21251;-75
2022/08/29 04:24:52;;;;;;;;;;;;;;;28.35;57.84;154791.58;1699275;84;20151;-75
2022/08/29 04:27:19;;;;;;;;;;;;;;;28.55;57.09;154841.45;1706368;83;20479;-75
2022/08/29 04:29:47;;;;;;;;;;;;;;;28.70;56.31;154879.52;1706376;84;20421;-75
2022/08/29 04:32:15;;;;;;;;;;;;;;;28.76;55.64;154895.25;1699192;84;20206;-75
2022/08/29 04:34:41;;;;;;;;;;;;;;;28.74;55.54;154890.00;1706191;83;22171;-66
2022/08/29 04:37:08;;;;;;;;;;;;;;;28.78;55.32;154900.50;1706134;84;20572;-66
2022/08/29 04:39:35;;;;;;;;;;;;;;;28.84;55.04;154916.28;1699101;84;20460;-64
2022/08/29 04:42:02;;;;;;;;;;;;;;;28.95;54.71;154942.58;1706250;83;20285;-64
2022/08/29 04:44:29;;;;;;;;;;;;;;;29.16;54.27;154997.72;1699345;83;20195;-63
2022/08/29 04:46:56;;;;;;;;;;;;;;;29.41;53.41;155059.50;1699241;83;21143;-62
2022/08/29 04:49:23;;;;;;;;;;;;;;;29.55;52.73;155096.25;1706186;84;20242;-62
2022/08/29 04:51:52;;;;;;;;;;;;;;;29.60;52.24;155108.08;1699198;84;20197;-71
2022/08/29 04:54:20;;;;;;;;;;;;;;;29.68;52.08;155127.78;1706769;83;20194;-71
2022/08/29 04:56:47;;;;;;;;;;;;;;;29.84;51.45;155168.48;1699518;84;20182;-71
2022/08/29 04:59:14;;;;;;;;;;;;;;;30.03;50.67;155215.83;1706603;84;21298;-72
2022/08/29 05:01:41;;;;;;;;;;;;;;;30.20;50.01;155259.17;1699649;84;20223;-72
2022/08/29 05:04:08;;;;;;;;;;;;;;;30.37;49.38;155302.50;1706518;84;20221;-72
2022/08/29 05:06:34;;;;;;;;;;;;;;;30.46;49.02;155326.19;1703489;84;20481;-70
2022/08/29 05:09:01;;;;;;;;;;;;;;;30.49;48.69;155334.06;1705416;84;20221;-71
2022/08/29 05:11:29;;;;;;;;;;;;;;;30.54;48.13;155347.19;1705279;84;21100;-71
2022/08/29 05:13:57;;;;;;;;;;;;;;;30.67;47.82;155380.09;1705445;84;20157;-73
2022/08/29 05:16:23;;;;;;;;;;;;;;;30.86;47.02;155428.73;1705332;84;20174;-63
2022/08/29 05:18:51;;;;;;;;;;;;;;;31.09;46.15;155485.22;1705096;84;20429;-71
2022/08/29 05:21:26;;;;;;;;;;;;;;;31.26;45.75;155528.64;1705630;84;20219;-71
2022/08/29 05:23:55;;;;;;;;;;;;;;;31.33;45.55;155547.08;1705426;83;21250;-71
2022/08/29 05:26:22;;;;;;;;;;;;;;;31.50;45.60;155590.44;1704817;82;20228;-71
2022/08/29 05:28:50;;;;;;;;;;;;;;;31.85;45.15;155679.91;1704646;83;20129;-73
2022/08/29 05:31:17;;;;;;;;;;;;;;;32.27;44.22;155786.41;1692410;84;20155;-70
2022/08/29 05:33:44;;;;;;;;;;;;;;;32.68;42.96;155889.05;1644101;86;20194;-72
2022/08/29 05:36:11;;;;;;;;;;;;;;;33.06;41.80;155986.47;1692306;83;21134;-70
2022/08/29 05:38:37;;;;;;;;;;;;;;;33.41;41.78;156075.91;1644711;85;20219;-62
2022/08/29 05:41:06;;;;;;;;;;;;;;;33.86;41.20;156190.47;1642391;85;20207;-63
2022/08/29 05:43:33;;;;;;;;;;;;;;;34.55;40.46;156364.31;1685949;84;20223;-64
2022/08/29 05:46:02;;;;;;;;;;;;;;;35.22;38.85;156534.19;1674130;84;20423;-64
2022/08/29 05:48:30;;;;;;;;;;;;;;;35.72;37.75;156662.02;1677660;84;21098;-63
2022/08/29 05:50:57;;;;;;;;;;;;;;;36.02;36.84;156737.11;1687743;83;20253;-63
2022/08/29 05:53:24;;;;;;;;;;;;;;;36.18;36.42;156778.00;1687421;84;20171;-63
2022/08/29 05:55:50;;;;;;;;;;;;;;;36.37;35.87;156826.78;1678491;84;20661;-62
2022/08/29 05:58:17;;;;;;;;;;;;;;;36.50;35.40;156861.00;1671622;84;20200;-64
2022/08/29 06:00:45;;;;;;;;;;;;;;;36.54;37.63;156871.59;1689224;83;21140;-72
2022/08/29 06:03:11;;;;;;;;;;;;;;;36.48;38.72;156855.75;1691499;83;20495;-71
2022/08/29 06:05:39;;;;;;;;;;;;;;;36.39;38.94;156832.03;1696356;83;20205;-72
2022/08/29 06:08:06;;;;;;;;;;;;;;;36.27;39.34;156803.03;1692861;83;20203;-71
2022/08/29 06:10:40;;;;;;;;;;;;;;;36.19;39.63;156781.97;1687962;84;20243;-71
2022/08/29 06:13:07;;;;;;;;;;;;;;;36.17;39.90;156776.70;1655295;85;21124;-63
2022/08/29 06:15:33;;;;;;;;;;;;;;;36.14;39.98;156768.75;1687951;83;20175;-63
2022/08/29 06:18:00;;;;;;;;;;;;;;;36.16;39.49;156774.06;1694737;83;20183;-63
2022/08/29 06:20:27;;;;;;;;;;;;;;;36.23;38.66;156792.50;1648451;85;20433;-72
2022/08/29 06:22:54;;;;;;;;;;;;;;;36.28;38.27;156805.66;1697740;82;20109;-71
2022/08/29 06:25:21;;;;;;;;;;;;;;;36.25;38.20;156797.77;1678987;84;21318;-62
2022/08/29 06:27:54;;;;;;;;;;;;;;;36.25;37.13;156797.77;1685745;84;20187;-71
2022/08/29 06:30:20;;;;;;;;;;;;;;;36.34;37.05;156818.83;1679672;84;20207;-62
2022/08/29 06:32:47;;;;;;;;;;;;;;;36.47;37.49;156853.11;1682208;84;20197;-62
2022/08/29 06:35:14;;;;;;;;;;;;;;;36.46;37.61;156850.47;1683303;84;20216;-63
2022/08/29 06:37:41;;;;;;;;;;;;;;;36.39;37.78;156832.03;1678786;84;21234;-70
2022/08/29 06:40:09;;;;;;;;;;;;;;;36.27;38.38;156803.03;1683201;84;20222;-71
2022/08/29 06:42:36;;;;;;;;;;;;;;;36.26;39.03;156800.41;1684572;84;20184;-62
2022/08/29 06:45:05;;;;;;;;;;;;;;;36.33;39.18;156816.19;1685691;84;20205;-72
2022/08/29 06:47:31;;;;;;;;;;;;;;;36.38;39.29;156829.41;1683697;84;20213;-62
2022/08/29 06:49:58;;;;;;;;;;;;;;;36.43;38.99;156842.58;1684301;84;21385;-63
2022/08/29 06:52:26;;;;;;;;;;;;;;;36.46;38.77;156850.47;1679336;84;20348;-62
2022/08/29 06:54:53;;;;;;;;;;;;;;;36.42;38.88;156839.94;1679587;84;20178;-63
2022/08/29 06:57:20;;;;;;;;;;;;;;;36.46;38.69;156850.47;1681806;84;20184;-71
2022/08/29 06:59:46;;;;;;;;;;;;;;;36.59;38.33;156882.12;1678710;84;20128;-63
2022/08/29 07:02:13;;;;;;;;;;;;;;;36.79;37.40;156933.55;1683649;83;22742;-63
2022/08/29 07:04:40;;;;;;;;;;;;;;;36.88;36.58;156957.25;1678514;84;20156;-63
2022/08/29 07:07:07;;;;;;;;;;;;;;;36.81;35.96;156940.16;1678759;84;20184;-62
2022/08/29 07:09:33;;;;;;;;;;;;;;;36.76;35.56;156926.94;1679540;84;20212;-62
2022/08/29 07:12:01;;;;;;;;;;;;;;;36.75;35.16;156923.02;1678722;85;20397;-62
2022/08/29 07:14:28;;;;;;;;;;;;;;;36.78;34.57;156932.20;1679081;84;21254;-63
2022/08/29 07:16:55;;;;;;;;;;;;;;;36.81;34.06;156940.16;1683118;84;20178;-72
2022/08/29 07:19:22;;;;;;;;;;;;;;;36.76;33.89;156926.94;1686020;84;20444;-71
2022/08/29 07:21:52;;;;;;;;;;;;;;;36.75;34.10;156924.31;1680100;84;20101;-62
2022/08/29 07:24:17;;;;;;;;;;;;;;;36.72;33.90;156915.11;1697574;82;20459;-63
2022/08/29 07:26:44;;;;;;;;;;;;;;;36.72;36.49;156916.41;1711230;82;21323;-72
2022/08/29 07:29:16;;;;;;;;;;;;;;;36.74;37.47;156920.38;1710031;82;20219;-63
2022/08/29 07:31:43;;;;;;;;;;;;;;;36.74;38.23;156920.38;1704728;82;20185;-63
2022/08/29 07:34:10;;;;;;;;;;;;;;;36.46;39.35;156850.47;1708327;83;20481;-63
2022/08/29 07:36:37;;;;;;;;;;;;;;;36.21;40.40;156785.89;1706205;82;20118;-62
2022/08/29 07:39:06;;;;;;;;;;;;;;;36.14;40.88;156768.75;1709682;82;21174;-63
2022/08/29 07:41:34;;;;;;;;;;;;;;;36.18;40.40;156779.34;1707095;84;20474;-63
2022/08/29 07:44:01;;;;;;;;;;;;;;;36.22;40.07;156789.86;1708722;82;20218;-63
2022/08/29 07:46:27;;;;;;;;;;;;;;;36.22;39.77;156789.86;1706298;82;20480;-63
2022/08/29 07:48:54;;;;;;;;;;;;;;;36.07;39.30;156750.33;1706438;82;20198;-63
2022/08/29 07:51:21;;;;;;;;;;;;;;;35.78;39.49;156676.52;1686076;82;21381;-61
2022/08/29 07:53:48;;;;;;;;;;;;;;;35.62;39.65;156635.69;1705287;82;20446;-61
2022/08/29 07:56:17;;;;;;;;;;;;;;;35.60;39.82;156631.72;1704057;82;20186;-61
2022/08/29 07:58:44;;;;;;;;;;;;;;;35.59;39.64;156629.09;1707965;82;20558;-61
2022/08/29 08:01:10;;;;;;;;;;;;;;;35.52;39.94;156610.66;1708576;82;20170;-69
2022/08/29 08:03:37;;;;;;;;;;;;;;;35.39;39.91;156577.69;1706372;84;21239;-62
2022/08/29 08:06:04;;;;;;;;;;;;;;;35.28;39.68;156550.03;1706695;84;20241;-61
2022/08/29 08:08:31;;;;;;;;;;;;;;;35.34;39.16;156565.83;1707449;84;20177;-61
2022/08/29 08:11:00;;;;;;;;;;;;;;;35.39;38.43;156577.69;1707839;82;20432;-62
2022/08/29 08:13:27;;;;;;;;;;;;;;;35.32;38.21;156560.56;1709088;82;20205;-61
2022/08/29 08:15:54;;;;;;;;;;;;;;;35.24;37.76;156539.47;1708438;82;21099;-61
2022/08/29 08:18:21;;;;;;;;;;;;;;;35.15;37.68;156517.11;1704924;82;20221;-62
2022/08/29 08:20:49;;;;;;;;;;;;;;;35.05;37.80;156492.09;1707550;82;20207;-71
2022/08/29 08:23:16;;;;;;;;;;;;;;;35.04;38.01;156489.47;1705187;82;20237;-72
2022/08/29 08:25:43;;;;;;;;;;;;;;;35.10;37.58;156505.25;1675101;84;20212;-62
2022/08/29 08:28:11;;;;;;;;;;;;;;;35.07;37.65;156496.02;1676492;84;21159;-62
2022/08/29 08:30:38;;;;;;;;;;;;;;;34.97;37.57;156470.94;1678315;84;20220;-70
2022/08/29 08:33:06;;;;;;;;;;;;;;;34.88;36.97;156447.27;1679037;84;20172;-70
2022/08/29 08:35:33;;;;;;;;;;;;;;;34.89;36.12;156449.89;1681654;84;20176;-70
2022/08/29 08:38:01;;;;;;;;;;;;;;;34.91;35.45;156455.16;1680951;84;20184;-71
2022/08/29 08:40:29;;;;;;;;;;;;;;;34.93;35.29;156461.75;1680328;84;21282;-71
2022/08/29 08:42:59;;;;;;;;;;;;;;;34.92;34.77;156459.08;1657576;84;20477;-61
2022/08/29 08:45:32;;;;;;;;;;;;;;;34.80;34.72;156428.80;1686808;84;20439;-62
2022/08/29 08:48:06;;;;;;;;;;;;;;;34.68;34.81;156397.22;1682224;84;20232;-62
2022/08/29 08:50:43;;;;;;;;;;;;;;;34.72;34.67;156407.75;1679641;84;20227;-64
2022/08/29 08:53:15;;;;;;;;;;;;;;;34.80;34.13;156427.50;1687378;84;21154;-62
2022/08/29 08:55:53;;;;;;;;;;;;;;;34.85;33.51;156442.00;1683924;84;20221;-62
2022/08/29 08:58:26;;;;;;;;;;;;;;;34.73;33.32;156410.37;1655718;85;20526;-61
2022/08/29 09:01:00;;;;;;;;;;;;;;;34.59;33.00;156374.84;1648893;86;20422;-62
2022/08/29 09:03:36;;;;;;;;;;;;;;;34.55;32.65;156365.61;1649733;85;20177;-62
2022/08/29 09:06:09;;;;;;;;;;;;;;;34.57;32.46;156369.58;1654770;86;21117;-62
2022/08/29 09:08:49;;;;;;;;;;;;;;;34.67;32.59;156394.59;1656419;85;20564;-62
2022/08/29 09:11:19;;;;;;;;;;;;;;;34.72;32.67;156407.75;1647974;85;20477;-62
2022/08/29 09:13:56;;;;;;;;;;;;;;;34.64;32.59;156386.70;1632597;86;21057;-63
2022/08/29 09:16:37;;;;;;;;;;;;;;;34.64;32.29;156386.70;1649847;85;20177;-63
2022/08/29 09:19:05;;;;;;;;;;;;;;;34.78;32.02;156423.53;1655528;85;21271;-62
2022/08/29 09:21:36;;;;;;;;;;;;;;;34.95;31.50;156467.02;1662345;85;20447;-62
2022/08/29 09:24:04;;;;;;;;;;;;;;;34.94;31.34;156463.05;1664174;83;20191;-62
2022/08/29 09:26:31;;;;;;;;;;;;;;;34.82;32.06;156434.11;1667306;82;20178;-62
2022/08/29 09:28:57;;;;;;;;;;;;;;;34.91;32.56;156455.16;1701264;82;20142;-62
2022/08/29 09:31:31;;;;;;;;;;;;;;;35.07;32.72;156496.02;1706791;82;21101;-62
2022/08/29 09:34:09;;;;;;;;;;;;;;;35.17;32.67;156521.03;1701701;84;20161;-62
2022/08/29 09:36:40;;;;;;;;;;;;;;;35.20;33.10;156528.94;1704519;82;20434;-62
2022/08/29 09:39:16;;;;;;;;;;;;;;;35.07;33.44;156497.36;1705643;82;21015;-62
2022/08/29 09:41:44;;;;;;;;;;;;;;;34.92;34.25;156457.78;1703507;82;20210;-62
2022/08/29 09:44:19;;;;;;;;;;;;;;;34.77;34.32;156420.91;1702895;82;20547;-63
2022/08/29 09:46:46;;;;;;;;;;;;;;;34.73;35.17;156410.37;1714094;82;20549;-63
2022/08/29 09:49:15;;;;;;;;;;;;;;;34.70;35.92;156403.78;1710964;82;20454;-62
2022/08/29 09:51:47;;;;;;;;;;;;;;;34.58;36.06;156372.20;1716900;82;20448;-62
2022/08/29 09:54:26;;;;;;;;;;;;;;;34.40;36.22;156326.09;1708382;82;20455;-62
2022/08/29 09:57:09;;;;;;;;;;;;;;;34.38;36.53;156322.13;1717917;82;20812;-63
2022/08/29 09:59:38;;;;;;;;;;;;;;;34.59;36.71;156373.50;1718509;82;20150;-62
2022/08/29 10:02:25;;;;;;;;;;;;;;;34.67;35.86;156394.59;1690685;83;20241;-63
2022/08/29 10:05:01;;;;;;;;;;;;;;;34.62;36.20;156381.44;1705083;82;20143;-63
2022/08/29 10:07:30;;;;;;;;;;;;;;;34.45;38.20;156339.25;1702598;84;20446;-63
2022/08/29 10:10:03;;;;;;;;;;;;;;;34.42;38.95;156331.36;1697052;82;21215;-62
2022/08/29 10:12:36;;;;;;;;;;;;;;;34.43;37.42;156333.98;1700503;84;20186;-72
2022/08/29 10:15:06;;;;;;;;;;;;;;;34.41;38.37;156328.72;1704884;82;20181;-73
2022/08/29 10:20:51;;;;;;;;;;;;;;;34.11;40.32;156253.69;1700288;82;20274;-63
2022/08/29 10:23:33;;;;;;;;;;;;;;;34.05;38.61;156237.91;1698541;83;21146;-63
2022/08/29 10:26:04;;;;;;;;;;;;;;;34.07;39.06;156241.81;1700600;84;20204;-63
2022/08/29 10:28:41;;;;;;;;;;;;;;;34.06;37.33;156239.19;1702441;84;20186;-64
2022/08/29 10:31:12;;;;;;;;;;;;;;;33.87;37.43;156191.75;1701535;84;20238;-62
2022/08/29 10:33:42;;;;;;;;;;;;;;;33.65;38.02;156135.19;1701462;84;20510;-62
2022/08/29 10:36:18;;;;;;;;;;;;;;;33.57;38.99;156116.72;1700043;84;21149;-61
2022/08/29 10:38:57;;;;;;;;;;;;;;;33.64;40.11;156132.56;1700427;84;20190;-62
2022/08/29 10:41:54;;;;;;;;;;;;;;;33.64;41.17;156132.56;1697753;84;20208;-62
2022/08/29 10:44:35;;;;;;;;;;;;;;;33.57;42.88;156116.72;1700035;84;20400;-62
2022/08/29 10:47:11;;;;;;;;;;;;;;;33.35;44.63;156060.13;1707146;82;20173;-62
2022/08/29 10:49:44;;;;;;;;;;;;;;;33.14;45.80;156007.48;1701145;82;21299;-71
2022/08/29 10:52:21;;;;;;;;;;;;;;;33.10;46.47;155996.97;1699222;84;21056;-71
2022/08/29 10:55:03;;;;;;;;;;;;;;;33.24;47.19;156031.16;1686772;84;20225;-73
2022/08/29 10:57:52;;;;;;;;;;;;;;;33.43;46.72;156081.20;1698561;84;20538;-72
2022/08/29 11:00:20;;;;;;;;;;;;;;;33.31;47.51;156049.61;1662266;85;20214;-70
2022/08/29 11:03:07;;;;;;;;;;;;;;;33.04;47.70;155981.16;1683431;82;21143;-70
2022/08/29 11:05:43;;;;;;;;;;;;;;;32.82;47.71;155925.84;1697166;83;20217;-61
2022/08/29 11:08:13;;;;;;;;;;;;;;;32.73;46.73;155902.19;1698044;84;20198;-63
2022/08/29 11:10:42;;;;;;;;;;;;;;;32.68;48.78;155889.05;1699987;84;20471;-62
2022/08/29 11:13:21;;;;;;;;;;;;;;;32.60;48.80;155867.97;1696101;84;20211;-62
2022/08/29 11:15:54;;;;;;;;;;;;;;;32.51;50.86;155846.94;1702126;84;21138;-61
2022/08/29 11:18:24;;;;;;;;;;;;;;;32.35;52.16;155806.19;1698898;82;20188;-62
2022/08/29 11:20:55;;;;;;;;;;;;;;;32.35;52.00;155804.84;1704831;84;20628;-62
2022/08/29 11:23:40;;;;;;;;;;;;;;;32.38;52.87;155812.73;1700114;84;21053;-63
2022/08/29 11:26:31;;;;;;;;;;;;;;;32.47;52.25;155835.09;1697697;83;20384;-62
2022/08/29 11:29:23;;;;;;;;;;;;;;;32.53;53.37;155852.20;1700673;82;21287;-62
2022/08/29 11:32:15;;;;;;;;;;;;;;;32.47;53.34;155835.09;1704207;84;20117;-62
2022/08/29 11:34:51;;;;;;;;;;;;;;;32.30;53.07;155793.00;1704296;82;20188;-61
2022/08/29 11:37:31;;;;;;;;;;;;;;;32.19;53.26;155765.37;1698188;84;20191;-61
2022/08/29 11:40:04;;;;;;;;;;;;;;;32.25;53.34;155781.16;1704480;84;20174;-63
2022/08/29 11:42:33;;;;;;;;;;;;;;;32.43;52.14;155825.92;1702707;82;23000;-63
2022/08/29 11:45:00;;;;;;;;;;;;;;;32.50;51.72;155844.31;1700869;82;20371;-62
2022/08/29 11:47:37;;;;;;;;;;;;;;;32.40;51.76;155818.03;1703180;82;20222;-62
2022/08/29 11:50:23;;;;;;;;;;;;;;;32.30;53.03;155794.28;1704161;82;20131;-62
2022/08/29 11:52:53;;;;;;;;;;;;;;;32.28;53.13;155789.03;1700643;84;20186;-62
2022/08/29 11:55:35;;;;;;;;;;;;;;;32.36;54.12;155807.47;1696315;84;21228;-62
2022/08/29 11:58:05;;;;;;;;;;;;;;;32.37;54.67;155810.11;1697539;83;20135;-63
2022/08/29 12:00:41;;;;;;;;;;;;;;;32.38;54.94;155812.73;1702483;82;20199;-62
2022/08/29 12:03:35;;;;;;;;;;;;;;;32.40;55.45;155818.03;1701617;82;20126;-62
2022/08/29 12:06:11;;;;;;;;;;;;;;;32.38;56.52;155812.73;1707464;82;20214;-62
2022/08/29 12:08:53;;;;;;;;;;;;;;;32.44;56.32;155828.55;1699099;84;21144;-63
2022/08/29 12:11:20;;;;;;;;;;;;;;;32.65;55.72;155881.16;1705906;82;20909;-72
2022/08/29 12:13:51;;;;;;;;;;;;;;;32.78;55.26;155914.05;1704882;82;20193;-62
2022/08/29 12:16:23;;;;;;;;;;;;;;;32.82;55.13;155925.84;1704685;82;20549;-62
2022/08/29 12:18:52;;;;;;;;;;;;;;;32.78;54.98;155914.05;1696385;84;20451;-61
2022/08/29 12:21:43;;;;;;;;;;;;;;;32.69;56.42;155891.67;1702927;84;21165;-62
2022/08/29 12:24:28;;;;;;;;;;;;;;;32.68;55.96;155889.05;1706388;82;20196;-63
2022/08/29 12:26:55;;;;;;;;;;;;;;;32.81;56.07;155923.22;1703064;81;20201;-63
2022/08/29 12:29:32;;;;;;;;;;;;;;;33.02;55.92;155974.61;1701955;81;20473;-62
2022/08/29 12:32:17;;;;;;;;;;;;;;;33.01;55.89;155973.27;1710986;82;20202;-62
2022/08/29 12:35:04;;;;;;;;;;;;;;;32.80;56.35;155919.30;1718083;81;21134;-61
2022/08/29 12:37:38;;;;;;;;;;;;;;;32.54;57.68;155854.83;1712663;81;20262;-69
2022/08/29 12:40:23;;;;;;;;;;;;;;;32.48;57.80;155839.06;1720686;81;20139;-72
2022/08/29 12:43:03;;;;;;;;;;;;;;;32.56;58.21;155860.09;1712691;81;20173;-71
2022/08/29 12:45:31;;;;;;;;;;;;;;;32.58;58.88;155864.06;1648111;85;20184;-73
2022/08/29 12:48:01;;;;;;;;;;;;;;;32.48;60.11;155839.06;1689461;84;21333;-71
2022/08/29 12:50:35;;;;;;;;;;;;;;;32.43;61.14;155827.22;1721257;81;20201;-71
2022/08/29 12:53:22;;;;;;;;;;;;;;;32.37;61.62;155810.11;1715713;81;20199;-71